createdAt,value
2023-04-09T00:02:37.044Z,-1.19
2023-04-09T00:07:38.939Z,-1.15
2023-04-09T00:12:40.847Z,-1.09
2023-04-09T00:17:42.673Z,-1.12
2023-04-09T00:22:44.506Z,-1.20
2023-04-09T00:27:46.585Z,-1.25
2023-04-09T00:32:48.876Z,-1.32
2023-04-09T00:37:50.860Z,-1.28
2023-04-09T00:42:52.715Z,-1.31
2023-04-09T00:47:54.701Z,-1.32
2023-04-09T00:52:56.711Z,-1.34
2023-04-09T00:57:58.665Z,-1.39
2023-04-09T01:03:01.187Z,-1.44
2023-04-09T01:08:35.753Z,-1.46
2023-04-09T01:13:56.011Z,-1.52
2023-04-09T01:19:23.916Z,-1.56
2023-04-09T01:24:31.842Z,-1.55
2023-04-09T01:29:37.378Z,-1.57
2023-04-09T01:34:42.375Z,-1.49
2023-04-09T01:39:45.238Z,-1.53
2023-04-09T01:44:47.323Z,-1.65
2023-04-09T01:49:49.478Z,-1.73
2023-04-09T01:54:51.421Z,-1.72
2023-04-09T01:59:54.616Z,-1.75
2023-04-09T02:04:58.758Z,-1.70
2023-04-09T02:10:01.845Z,-1.73
2023-04-09T02:15:05.970Z,-1.91
2023-04-09T02:20:08.394Z,-2.00
2023-04-09T02:25:10.403Z,-2.12
2023-04-09T02:30:12.873Z,-2.07
2023-04-09T02:35:15.392Z,-2.05
2023-04-09T02:40:17.362Z,-2.04
2023-04-09T02:45:19.223Z,-1.94
2023-04-09T02:50:21.237Z,-1.95
2023-04-09T02:55:26.281Z,-2.07
2023-04-09T03:00:28.191Z,-2.08
2023-04-09T03:05:30.819Z,-2.12
2023-04-09T03:10:32.746Z,-2.20
2023-04-09T03:15:34.680Z,-2.25
2023-04-09T03:20:39.695Z,-2.29
2023-04-09T03:25:44.594Z,-2.39
2023-04-09T03:30:49.497Z,-2.41
2023-04-09T03:35:51.908Z,-2.41
2023-04-09T03:41:02.444Z,-2.33
2023-04-09T03:46:17.807Z,-2.36
2023-04-09T03:51:22.541Z,-2.44
2023-04-09T03:56:30.374Z,-2.28
2023-04-09T04:01:33.550Z,-2.06
2023-04-09T04:06:36.532Z,-2.08
2023-04-09T04:11:58.939Z,-2.31
2023-04-09T04:17:14.745Z,-2.37
2023-04-09T04:22:16.867Z,-2.41
2023-04-09T04:27:21.368Z,-2.41
2023-04-09T04:32:23.398Z,-2.47
2023-04-09T04:37:27.096Z,-2.35
2023-04-09T04:42:33.571Z,-2.33
2023-04-09T04:47:39.344Z,-2.17
2023-04-09T04:52:41.364Z,-2.12
2023-04-09T04:57:43.946Z,-1.87
2023-04-09T05:02:46.785Z,-1.76
2023-04-09T05:07:57.982Z,-1.32
2023-04-09T05:12:59.832Z,-1.03
2023-04-09T05:18:08.841Z,-0.85
2023-04-09T05:23:12.580Z,-0.60
2023-04-09T05:28:21.996Z,-0.31
2023-04-09T05:33:38.343Z,-0.01
2023-04-09T05:38:48.024Z,0.19
2023-04-09T05:43:50.290Z,0.25
2023-04-09T05:48:53.022Z,0.53
2023-04-09T05:53:56.455Z,0.71
2023-04-09T05:58:58.605Z,0.86
2023-04-09T06:04:00.973Z,1.18
2023-04-09T06:09:05.813Z,1.48
2023-04-09T06:14:08.006Z,1.53
2023-04-09T06:19:09.868Z,1.68
2023-04-09T06:24:11.956Z,1.82
2023-04-09T06:29:14.153Z,1.88
2023-04-09T06:34:16.249Z,1.92
2023-04-09T06:39:18.220Z,1.87
2023-04-09T06:44:21.525Z,2.08
2023-04-09T06:49:23.371Z,1.88
2023-04-09T06:54:25.361Z,2.02
2023-04-09T06:59:27.199Z,1.90
2023-04-09T07:04:29.185Z,2.23
2023-04-09T07:09:31.662Z,2.72
2023-04-09T07:14:33.599Z,3.84
2023-04-09T07:19:35.415Z,4.51
2023-04-09T07:24:37.236Z,4.69
2023-04-09T07:29:39.035Z,4.56
2023-04-09T07:34:41.520Z,4.56
2023-04-09T07:39:43.358Z,4.95
2023-04-09T07:44:45.148Z,4.76
2023-04-09T07:49:47.157Z,4.67
2023-04-09T07:54:49.025Z,4.55
2023-04-09T07:59:53.519Z,4.73
2023-04-09T08:04:55.387Z,4.76
2023-04-09T08:09:57.269Z,4.96
2023-04-09T08:14:59.133Z,5.27
2023-04-09T08:20:01.288Z,5.59
2023-04-09T08:25:03.188Z,5.93
2023-04-09T08:30:05.470Z,6.34
2023-04-09T08:35:08.020Z,6.54
2023-04-09T08:40:12.065Z,6.95
2023-04-09T08:45:14.123Z,7.33
2023-04-09T08:50:16.262Z,7.63
2023-04-09T08:55:18.076Z,7.92
2023-04-09T09:00:19.846Z,8.06
2023-04-09T09:05:36.230Z,8.39
2023-04-09T09:10:43.403Z,8.25
2023-04-09T09:15:47.726Z,8.54
2023-04-09T09:20:49.553Z,8.61
2023-04-09T09:25:51.346Z,9.14
2023-04-09T09:30:53.232Z,9.89
2023-04-09T09:35:56.987Z,10.39
2023-04-09T09:40:59.133Z,10.38
2023-04-09T09:46:01.521Z,9.51
2023-04-09T09:51:08.771Z,8.79
2023-04-09T09:56:18.990Z,9.56
2023-04-09T10:01:24.411Z,9.81
2023-04-09T10:06:27.631Z,9.74
2023-04-09T10:11:29.839Z,10.23
2023-04-09T10:16:32.948Z,10.22
2023-04-09T10:21:59.616Z,10.59
2023-04-09T10:27:16.978Z,11.25
2023-04-09T10:32:26.493Z,10.90
2023-04-09T10:37:28.904Z,11.41
2023-04-09T10:42:35.637Z,11.92
2023-04-09T10:47:39.908Z,11.53
2023-04-09T10:52:42.579Z,11.51
2023-04-09T10:57:44.375Z,12.20
2023-04-09T11:03:05.816Z,12.40
2023-04-09T11:08:13.278Z,13.86
2023-04-09T11:13:17.112Z,16.35
2023-04-09T11:18:30.062Z,16.00
2023-04-09T11:23:32.949Z,18.26
2023-04-09T11:28:35.076Z,19.12
2023-04-09T11:33:36.940Z,16.83
2023-04-09T11:38:39.216Z,18.13
2023-04-09T11:43:41.206Z,19.44
2023-04-09T11:48:43.137Z,20.01
2023-04-09T11:53:44.952Z,16.69
2023-04-09T11:58:48.433Z,17.66
2023-04-09T12:03:57.263Z,19.16
2023-04-09T12:08:59.864Z,20.65
2023-04-09T12:14:05.707Z,23.60
2023-04-09T12:19:08.589Z,25.42
2023-04-09T12:24:10.531Z,25.53
2023-04-09T12:29:14.563Z,20.76
2023-04-09T12:34:16.375Z,21.60
2023-04-09T12:39:18.260Z,23.52
2023-04-09T12:44:20.078Z,20.72
2023-04-09T12:49:21.888Z,20.66
2023-04-09T12:54:23.782Z,20.00
2023-04-09T12:59:26.202Z,22.67
2023-04-09T13:04:28.169Z,23.30
2023-04-09T13:09:30.156Z,24.59
2023-04-09T13:14:32.179Z,22.45
2023-04-09T13:19:35.564Z,25.46
2023-04-09T13:24:43.644Z,21.04
2023-04-09T13:29:45.749Z,20.06
2023-04-09T13:34:47.421Z,23.69
2023-04-09T13:39:50.470Z,21.74
2023-04-09T13:44:52.179Z,22.72
2023-04-09T13:49:53.905Z,22.84
2023-04-09T13:54:55.570Z,21.92
2023-04-09T13:59:57.218Z,24.56
2023-04-09T14:04:58.884Z,22.10
2023-04-09T14:10:02.937Z,20.27
2023-04-09T14:15:05.393Z,19.61
2023-04-09T14:20:07.942Z,17.73
2023-04-09T14:25:20.435Z,18.08
2023-04-09T14:30:46.705Z,19.94
2023-04-09T14:35:48.746Z,21.99
2023-04-09T14:40:51.140Z,24.37
2023-04-09T14:46:07.419Z,21.36
2023-04-09T14:51:16.870Z,23.68
2023-04-09T14:56:22.508Z,24.13
2023-04-09T15:01:34.312Z,22.97
2023-04-09T15:06:43.832Z,22.19
2023-04-09T15:17:54.086Z,15.74
2023-04-09T15:22:55.948Z,13.57
2023-04-09T15:27:58.935Z,13.49
2023-04-09T15:33:00.790Z,12.74
2023-04-09T15:38:02.450Z,12.13
2023-04-09T15:43:04.175Z,11.40
2023-04-09T15:48:06.146Z,11.12
2023-04-09T15:53:07.846Z,11.07
2023-04-09T15:58:09.582Z,10.92
2023-04-09T16:03:11.225Z,10.80
2023-04-09T16:08:13.013Z,10.82
2023-04-09T16:13:14.644Z,10.84
2023-04-09T16:18:17.158Z,10.55
2023-04-09T16:23:18.805Z,10.60
2023-04-09T16:28:21.984Z,10.36
2023-04-09T16:33:23.589Z,10.18
2023-04-09T16:38:27.538Z,10.14
2023-04-09T16:43:30.247Z,10.00
2023-04-09T16:48:32.377Z,9.95
2023-04-09T16:53:38.321Z,9.85
2023-04-09T16:58:40.577Z,9.77
2023-04-09T17:03:42.283Z,9.61
2023-04-09T17:08:44.028Z,9.44
2023-04-09T17:13:45.717Z,9.21
2023-04-09T17:18:47.666Z,9.10
2023-04-09T17:23:49.443Z,8.91
2023-04-09T17:28:52.413Z,8.79
2023-04-09T17:33:54.324Z,8.63
2023-04-09T17:38:56.645Z,8.30
2023-04-09T17:43:58.320Z,8.01
2023-04-09T17:48:59.969Z,7.78
2023-04-09T17:54:01.697Z,7.45
2023-04-09T17:59:03.448Z,7.37
2023-04-09T18:04:05.675Z,7.12
2023-04-09T18:09:07.646Z,6.82
2023-04-09T18:14:09.610Z,6.57
2023-04-09T18:19:11.886Z,6.36
2023-04-09T18:24:13.504Z,6.48
2023-04-09T18:29:15.725Z,6.45
2023-04-09T18:34:17.372Z,6.15
2023-04-09T18:39:19.668Z,5.85
2023-04-09T18:44:21.310Z,5.71
2023-04-09T18:49:22.938Z,5.39
2023-04-09T18:54:25.603Z,5.36
2023-04-09T18:59:27.239Z,5.08
2023-04-09T19:04:30.326Z,4.94
2023-04-09T19:09:32.734Z,4.77
2023-04-09T19:14:36.388Z,4.60
2023-04-09T19:19:38.236Z,4.47
2023-04-09T19:24:43.113Z,4.12
2023-04-09T19:29:46.316Z,3.91
2023-04-09T19:34:48.209Z,3.79
2023-04-09T19:39:50.058Z,3.63
2023-04-09T19:44:51.974Z,3.67
2023-04-09T19:49:54.597Z,3.51
2023-04-09T19:54:56.798Z,3.34
2023-04-09T19:59:58.680Z,3.16
2023-04-09T20:05:00.586Z,3.04
2023-04-09T20:10:03.080Z,3.02
2023-04-09T20:15:05.802Z,2.94
2023-04-09T20:20:08.622Z,2.87
2023-04-09T20:25:11.978Z,2.74
2023-04-09T20:30:14.117Z,2.60
2023-04-09T20:35:16.022Z,2.46
2023-04-09T20:40:17.866Z,2.42
2023-04-09T20:45:19.823Z,2.35
2023-04-09T20:50:21.916Z,2.42
2023-04-09T20:55:24.493Z,2.27
2023-04-09T21:00:26.286Z,2.08
2023-04-09T21:05:28.451Z,1.93
2023-04-09T21:10:30.634Z,1.84
2023-04-09T21:15:32.413Z,1.82
2023-04-09T21:20:34.262Z,1.75
2023-04-09T21:25:36.124Z,1.66
2023-04-09T21:30:38.207Z,1.62
2023-04-09T21:35:40.089Z,1.50
2023-04-09T21:40:41.918Z,1.39
2023-04-09T21:45:43.941Z,1.78
2023-04-09T21:50:45.934Z,1.64
2023-04-09T21:55:47.846Z,1.50
2023-04-09T22:00:49.709Z,1.41
2023-04-09T22:05:51.530Z,1.22
2023-04-09T22:10:53.322Z,1.12
2023-04-09T22:15:55.146Z,1.03
2023-04-09T22:20:56.987Z,0.92
2023-04-09T22:26:01.027Z,0.87
2023-04-09T22:31:03.579Z,0.82
2023-04-09T22:36:05.810Z,0.73
2023-04-09T22:41:07.636Z,0.69
2023-04-09T22:46:09.535Z,0.64
2023-04-09T22:51:11.453Z,0.56
2023-04-09T22:56:13.578Z,0.55
2023-04-09T23:01:15.486Z,0.58
2023-04-09T23:06:17.388Z,0.54
2023-04-09T23:11:19.234Z,0.47
2023-04-09T23:16:21.980Z,0.45
2023-04-09T23:21:23.831Z,0.51
2023-04-09T23:26:25.637Z,0.50
2023-04-09T23:31:27.671Z,0.30
2023-04-09T23:36:29.486Z,0.24
2023-04-09T23:41:31.276Z,0.10
2023-04-09T23:46:33.124Z,-0.10
2023-04-09T23:51:35.102Z,-0.11
2023-04-09T23:56:37.576Z,-0.11
